createdAt,value
2023-02-01T00:00:33.060Z,6.40
2023-02-01T00:03:00.252Z,6.68
2023-02-01T00:05:27.144Z,5.95
2023-02-01T00:07:54.001Z,6.32
2023-02-01T00:10:21.212Z,6.25
2023-02-01T00:12:48.253Z,6.30
2023-02-01T00:15:15.278Z,7.85
2023-02-01T00:17:42.156Z,6.60
2023-02-01T00:20:09.888Z,6.50
2023-02-01T00:22:36.905Z,6.90
2023-02-01T00:25:03.989Z,7.13
2023-02-01T00:27:30.856Z,7.13
2023-02-01T00:29:57.634Z,6.50
2023-02-01T00:32:24.575Z,7.32
2023-02-01T00:34:51.636Z,8.45
2023-02-01T00:37:18.487Z,7.00
2023-02-01T00:39:45.271Z,6.93
2023-02-01T00:42:12.176Z,8.32
2023-02-01T00:44:39.034Z,7.72
2023-02-01T00:47:05.966Z,8.23
2023-02-01T00:49:32.851Z,7.22
2023-02-01T00:51:59.651Z,8.02
2023-02-01T00:54:26.522Z,7.88
2023-02-01T00:56:53.355Z,7.80
2023-02-01T00:59:20.280Z,7.93
2023-02-01T01:01:47.175Z,7.18
2023-02-01T01:04:14.069Z,7.93
2023-02-01T01:06:41.008Z,7.50
2023-02-01T01:09:09.278Z,8.73
2023-02-01T01:11:39.016Z,9.77
2023-02-01T01:14:08.239Z,9.15
2023-02-01T01:16:38.704Z,9.05
2023-02-01T01:19:05.679Z,9.40
2023-02-01T01:21:32.738Z,8.43
2023-02-01T01:23:59.683Z,10.27
2023-02-01T01:26:28.266Z,8.15
2023-02-01T01:29:00.354Z,8.65
2023-02-01T01:31:28.626Z,8.85
2023-02-01T01:33:58.453Z,8.07
2023-02-01T01:36:26.572Z,7.97
2023-02-01T01:38:53.818Z,7.90
2023-02-01T01:41:27.318Z,7.10
2023-02-01T01:44:27.423Z,8.43
2023-02-01T01:46:54.381Z,7.63
2023-02-01T01:49:25.160Z,7.47
2023-02-01T01:52:03.738Z,7.40
2023-02-01T01:54:42.218Z,9.00
2023-02-01T01:57:18.577Z,7.93
2023-02-01T01:59:51.410Z,8.48
2023-02-01T02:02:18.788Z,7.28
2023-02-01T02:04:47.302Z,9.00
2023-02-01T02:07:21.569Z,7.72
2023-02-01T02:10:00.161Z,8.05
2023-02-01T02:12:27.772Z,7.60
2023-02-01T02:14:55.028Z,8.63
2023-02-01T02:17:32.648Z,8.18
2023-02-01T02:20:31.604Z,7.95
2023-02-01T02:23:39.467Z,7.82
2023-02-01T02:26:18.172Z,7.45
2023-02-01T02:28:53.769Z,8.70
2023-02-01T02:31:39.195Z,8.52
2023-02-01T02:34:30.664Z,8.85
2023-02-01T02:37:09.318Z,8.65
2023-02-01T02:40:04.062Z,9.48
2023-02-01T02:42:46.677Z,8.65
2023-02-01T02:45:39.322Z,7.15
2023-02-01T02:48:25.037Z,7.75
2023-02-01T02:51:09.056Z,8.07
2023-02-01T02:54:00.822Z,9.10
2023-02-01T02:56:29.335Z,8.80
2023-02-01T02:58:56.948Z,7.90
2023-02-01T03:01:24.014Z,9.55
2023-02-01T03:03:51.447Z,9.20
2023-02-01T03:06:19.226Z,8.52
2023-02-01T03:08:46.268Z,9.13
2023-02-01T03:11:16.600Z,10.55
2023-02-01T03:13:46.058Z,9.68
2023-02-01T03:16:27.470Z,10.35
2023-02-01T03:19:25.190Z,8.63
2023-02-01T03:21:57.702Z,9.95
2023-02-01T03:24:33.674Z,10.43
2023-02-01T03:27:15.878Z,10.20
2023-02-01T03:29:55.680Z,10.32
2023-02-01T03:32:23.114Z,11.00
2023-02-01T03:34:51.493Z,11.38
2023-02-01T03:37:26.279Z,12.73
2023-02-01T03:40:06.063Z,14.05
2023-02-01T03:42:38.423Z,13.82
2023-02-01T03:45:12.768Z,13.60
2023-02-01T03:47:44.906Z,12.40
2023-02-01T03:50:18.899Z,14.10
2023-02-01T03:52:52.045Z,13.35
2023-02-01T03:55:21.350Z,14.60
2023-02-01T03:57:56.313Z,13.68
2023-02-01T04:00:26.490Z,14.48
2023-02-01T04:02:54.508Z,14.40
2023-02-01T04:05:22.538Z,16.77
2023-02-01T04:07:49.626Z,16.40
2023-02-01T04:10:19.547Z,14.32
2023-02-01T04:12:46.680Z,16.73
2023-02-01T04:15:13.631Z,14.60
2023-02-01T04:17:40.537Z,15.30
2023-02-01T04:20:07.759Z,16.40
2023-02-01T04:22:34.583Z,15.75
2023-02-01T04:25:01.620Z,16.63
2023-02-01T04:27:28.480Z,12.98
2023-02-01T04:29:58.158Z,13.15
2023-02-01T04:32:25.357Z,15.88
2023-02-01T04:34:52.401Z,13.48
2023-02-01T04:37:19.214Z,14.93
2023-02-01T04:39:46.202Z,14.63
2023-02-01T04:42:13.158Z,13.02
2023-02-01T04:44:40.080Z,14.38
2023-02-01T04:47:06.903Z,12.35
2023-02-01T04:49:33.787Z,12.10
2023-02-01T04:52:00.798Z,11.40
2023-02-01T04:54:27.590Z,12.48
2023-02-01T04:56:54.508Z,11.98
2023-02-01T04:59:21.551Z,12.52
2023-02-01T05:01:49.042Z,15.38
2023-02-01T05:04:16.096Z,14.60
2023-02-01T05:06:43.016Z,13.45
2023-02-01T05:09:10.010Z,13.25
2023-02-01T05:11:37.015Z,12.70
2023-02-01T05:14:03.898Z,13.35
2023-02-01T05:16:30.686Z,12.80
2023-02-01T05:18:57.551Z,12.85
2023-02-01T05:21:24.656Z,10.93
2023-02-01T05:23:51.556Z,11.32
2023-02-01T05:26:18.397Z,9.65
2023-02-01T05:28:45.343Z,10.68
2023-02-01T05:31:12.728Z,8.93
2023-02-01T05:33:39.697Z,9.70
2023-02-01T05:36:07.009Z,10.73
2023-02-01T05:38:34.080Z,10.88
2023-02-01T05:41:01.027Z,9.65
2023-02-01T05:43:27.919Z,8.38
2023-02-01T05:45:54.845Z,10.40
2023-02-01T05:48:21.681Z,9.60
2023-02-01T05:50:48.624Z,9.18
2023-02-01T05:53:15.629Z,9.20
2023-02-01T05:55:43.615Z,11.18
2023-02-01T05:58:10.411Z,9.40
2023-02-01T06:00:37.693Z,11.18
2023-02-01T06:03:04.532Z,11.32
2023-02-01T06:05:31.577Z,10.18
2023-02-01T06:07:58.616Z,10.05
2023-02-01T06:10:26.055Z,12.00
2023-02-01T06:12:53.087Z,9.95
2023-02-01T06:15:19.935Z,10.65
2023-02-01T06:17:47.204Z,9.82
2023-02-01T06:20:15.840Z,10.07
2023-02-01T06:22:43.048Z,9.57
2023-02-01T06:25:11.176Z,9.15
2023-02-01T06:27:38.351Z,8.93
2023-02-01T06:30:07.061Z,9.45
2023-02-01T06:32:33.968Z,10.68
2023-02-01T06:35:00.846Z,9.48
2023-02-01T06:37:27.780Z,9.05
2023-02-01T06:39:54.678Z,8.35
2023-02-01T06:42:21.854Z,9.45
2023-02-01T06:44:48.825Z,8.82
2023-02-01T06:47:15.695Z,10.30
2023-02-01T06:49:42.557Z,8.73
2023-02-01T06:52:09.377Z,8.88
2023-02-01T06:54:36.354Z,9.32
2023-02-01T06:57:03.387Z,9.27
2023-02-01T06:59:31.296Z,9.05
2023-02-01T07:01:58.232Z,10.07
2023-02-01T07:04:25.088Z,11.25
2023-02-01T07:06:51.979Z,11.02
2023-02-01T07:09:18.969Z,10.20
2023-02-01T07:11:45.812Z,11.00
2023-02-01T07:14:13.193Z,9.05
2023-02-01T07:16:40.408Z,10.57
2023-02-01T07:19:07.357Z,10.50
2023-02-01T07:21:34.453Z,9.65
2023-02-01T07:24:01.314Z,9.70
2023-02-01T07:26:28.350Z,8.65
2023-02-01T07:28:55.207Z,8.40
2023-02-01T07:31:22.115Z,9.57
2023-02-01T07:33:50.300Z,7.38
2023-02-01T07:36:18.262Z,7.18
2023-02-01T07:38:46.197Z,8.50
2023-02-01T07:41:13.145Z,9.30
2023-02-01T07:43:39.989Z,8.90
2023-02-01T07:46:07.921Z,8.02
2023-02-01T07:48:35.046Z,9.07
2023-02-01T07:51:07.367Z,10.65
2023-02-01T07:53:36.243Z,10.32
2023-02-01T07:56:04.244Z,9.77
2023-02-01T07:58:31.691Z,10.60
2023-02-01T08:00:58.538Z,11.48
2023-02-01T08:03:25.537Z,11.50
2023-02-01T08:05:56.891Z,10.70
2023-02-01T08:08:24.369Z,10.73
2023-02-01T08:10:51.336Z,10.73
2023-02-01T08:13:18.365Z,10.07
2023-02-01T08:15:45.233Z,11.18
2023-02-01T08:18:12.074Z,11.70
2023-02-01T08:20:38.976Z,11.00
2023-02-01T08:23:09.335Z,9.70
2023-02-01T08:25:36.267Z,9.15
2023-02-01T08:28:03.924Z,10.50
2023-02-01T08:30:30.885Z,8.43
2023-02-01T08:32:58.348Z,8.60
2023-02-01T08:35:37.864Z,9.75
2023-02-01T08:38:09.546Z,9.50
2023-02-01T08:40:36.498Z,7.93
2023-02-01T08:43:03.557Z,9.55
2023-02-01T08:45:30.837Z,8.30
2023-02-01T08:47:58.382Z,9.15
2023-02-01T08:50:26.314Z,9.63
2023-02-01T08:52:54.482Z,7.72
2023-02-01T08:55:21.860Z,8.32
2023-02-01T08:57:49.276Z,9.20
2023-02-01T09:00:18.520Z,7.97
2023-02-01T09:02:46.061Z,7.53
2023-02-01T09:05:13.567Z,7.68
2023-02-01T09:07:42.931Z,8.90
2023-02-01T09:10:10.493Z,7.10
2023-02-01T09:12:42.753Z,7.65
2023-02-01T09:15:10.005Z,7.30
2023-02-01T09:17:37.789Z,7.70
2023-02-01T09:20:05.524Z,6.95
2023-02-01T09:22:32.473Z,8.10
2023-02-01T09:24:59.847Z,6.95
2023-02-01T09:27:26.996Z,4.40
2023-02-01T09:29:54.037Z,4.30
2023-02-01T09:32:22.810Z,4.45
2023-02-01T09:34:51.214Z,5.07
2023-02-01T09:37:18.367Z,4.70
2023-02-01T09:39:45.217Z,4.72
2023-02-01T09:42:42.420Z,5.78
2023-02-01T09:45:30.441Z,4.55
2023-02-01T09:48:03.857Z,5.37
2023-02-01T09:50:40.992Z,4.63
2023-02-01T09:53:35.751Z,4.90
2023-02-01T09:56:15.511Z,5.18
2023-02-01T09:58:45.925Z,4.70
2023-02-01T10:01:22.458Z,5.13
2023-02-01T10:03:50.414Z,4.35
2023-02-01T10:06:37.918Z,4.78
2023-02-01T10:09:30.802Z,5.18
2023-02-01T10:12:34.675Z,4.70
2023-02-01T10:15:24.160Z,5.20
2023-02-01T10:17:53.962Z,4.45
2023-02-01T10:20:42.653Z,5.60
2023-02-01T10:23:33.814Z,4.50
2023-02-01T10:26:01.305Z,5.13
2023-02-01T10:28:35.930Z,5.17
2023-02-01T10:31:03.523Z,5.28
2023-02-01T10:33:35.137Z,5.13
2023-02-01T10:36:16.916Z,55.83
2023-02-01T10:38:44.781Z,7.85
2023-02-01T10:41:21.552Z,5.47
2023-02-01T10:43:52.775Z,5.32
2023-02-01T10:46:19.956Z,4.90
2023-02-01T10:48:48.387Z,5.45
2023-02-01T10:51:26.059Z,4.40
2023-02-01T10:54:04.271Z,5.53
2023-02-01T10:56:31.136Z,4.03
2023-02-01T10:59:04.215Z,4.68
2023-02-01T11:01:35.085Z,5.65
2023-02-01T11:04:08.385Z,4.38
2023-02-01T11:06:44.602Z,4.17
2023-02-01T11:09:17.012Z,4.75
2023-02-01T11:11:49.804Z,4.30
2023-02-01T11:14:25.610Z,4.82
2023-02-01T11:16:58.517Z,4.50
2023-02-01T11:19:25.544Z,7.70
2023-02-01T11:21:59.037Z,8.57
2023-02-01T11:24:35.154Z,8.98
2023-02-01T11:27:06.616Z,8.85
2023-02-01T11:29:40.161Z,8.98
2023-02-01T11:32:10.197Z,9.47
2023-02-01T11:34:42.951Z,9.18
2023-02-01T11:37:39.713Z,9.07
2023-02-01T11:40:18.815Z,8.52
2023-02-01T11:43:15.000Z,9.60
2023-02-01T11:45:41.995Z,7.13
2023-02-01T11:48:26.369Z,7.55
2023-02-01T11:51:12.299Z,10.48
2023-02-01T11:54:00.637Z,11.25
2023-02-01T11:56:32.935Z,9.23
2023-02-01T11:59:12.982Z,8.40
2023-02-01T12:01:51.800Z,10.90
2023-02-01T12:04:43.386Z,8.35
2023-02-01T12:07:23.405Z,9.52
2023-02-01T12:10:10.831Z,8.43
2023-02-01T12:12:54.568Z,10.27
2023-02-01T12:15:36.474Z,7.80
2023-02-01T12:18:20.741Z,6.22
2023-02-01T12:21:22.043Z,6.78
2023-02-01T12:23:51.489Z,6.88
2023-02-01T12:26:44.229Z,4.87
2023-02-01T12:29:48.676Z,6.75
2023-02-01T12:32:27.705Z,3.97
2023-02-01T12:35:10.541Z,3.47
2023-02-01T12:38:03.397Z,3.33
2023-02-01T12:40:54.086Z,4.40
2023-02-01T12:43:23.343Z,3.60
2023-02-01T12:46:03.367Z,3.45
2023-02-01T12:49:18.082Z,3.90
2023-02-01T12:51:49.983Z,4.00
2023-02-01T12:54:26.924Z,4.03
2023-02-01T12:57:19.787Z,8.82
2023-02-01T13:00:05.981Z,9.48
2023-02-01T13:02:45.873Z,10.85
2023-02-01T13:05:22.018Z,10.57
2023-02-01T13:08:40.629Z,7.97
2023-02-01T13:11:20.349Z,8.10
2023-02-01T13:14:11.641Z,7.68
2023-02-01T13:16:52.249Z,9.77
2023-02-01T13:19:28.155Z,11.35
2023-02-01T13:22:00.177Z,12.67
2023-02-01T13:24:43.981Z,12.95
2023-02-01T13:27:18.393Z,5.32
2023-02-01T13:30:00.198Z,6.00
2023-02-01T13:32:54.784Z,7.50
2023-02-01T13:35:45.787Z,9.07
2023-02-01T13:38:13.109Z,6.82
2023-02-01T13:40:49.162Z,7.22
2023-02-01T13:43:18.605Z,8.90
2023-02-01T13:45:52.704Z,8.05
2023-02-01T13:48:28.187Z,6.20
2023-02-01T13:50:58.346Z,50.65
2023-02-01T13:53:34.791Z,47.97
2023-02-01T13:56:12.523Z,35.50
2023-02-01T13:58:42.093Z,8.73
2023-02-01T14:01:24.350Z,3.40
2023-02-01T14:03:57.896Z,3.58
2023-02-01T14:06:27.686Z,3.22
2023-02-01T14:09:32.530Z,4.68
2023-02-01T14:12:19.532Z,3.13
2023-02-01T14:14:49.427Z,3.85
2023-02-01T14:17:25.333Z,3.40
2023-02-01T14:20:30.602Z,3.30
2023-02-01T14:23:05.466Z,3.38
2023-02-01T14:25:35.853Z,3.42
2023-02-01T14:28:05.255Z,3.47
2023-02-01T14:30:33.785Z,3.65
2023-02-01T14:33:19.603Z,3.40
2023-02-01T14:36:05.755Z,3.13
2023-02-01T14:41:34.738Z,3.45
2023-02-01T14:44:04.854Z,4.10
2023-02-01T14:47:05.811Z,3.15
2023-02-01T14:49:53.554Z,2.95
2023-02-01T14:52:23.689Z,3.92
2023-02-01T14:55:02.073Z,3.88
2023-02-01T14:57:30.534Z,3.80
2023-02-01T15:00:17.781Z,3.60
2023-02-01T15:02:46.864Z,5.28
2023-02-01T15:05:29.077Z,3.50
2023-02-01T15:07:57.164Z,3.97
2023-02-01T15:10:25.627Z,3.10
2023-02-01T15:12:52.673Z,3.58
2023-02-01T15:15:25.132Z,3.53
2023-02-01T15:18:00.396Z,3.15
2023-02-01T15:20:31.213Z,3.45
2023-02-01T15:23:06.477Z,3.20
2023-02-01T15:25:38.519Z,3.35
2023-02-01T15:28:06.080Z,3.58
2023-02-01T15:30:36.187Z,3.30
2023-02-01T15:33:15.359Z,2.88
2023-02-01T15:35:51.450Z,3.60
2023-02-01T15:38:25.610Z,3.03
2023-02-01T15:41:00.040Z,3.25
2023-02-01T15:43:28.514Z,4.18
2023-02-01T15:46:01.766Z,3.10
2023-02-01T15:48:39.387Z,3.55
2023-02-01T15:51:07.058Z,2.97
2023-02-01T15:53:34.138Z,3.40
2023-02-01T15:56:05.630Z,3.35
2023-02-01T15:58:32.870Z,3.40
2023-02-01T16:01:06.163Z,3.70
2023-02-01T16:03:40.004Z,3.05
2023-02-01T16:06:29.533Z,4.15
2023-02-01T16:09:03.956Z,3.40
2023-02-01T16:11:41.751Z,2.58
2023-02-01T16:14:08.614Z,2.88
2023-02-01T16:16:35.522Z,2.92
2023-02-01T16:19:05.185Z,3.08
2023-02-01T16:21:32.018Z,4.68
2023-02-01T16:23:58.904Z,2.97
2023-02-01T16:26:25.745Z,2.78
2023-02-01T16:28:52.701Z,3.17
2023-02-01T16:31:25.903Z,3.97
2023-02-01T16:33:53.137Z,4.10
2023-02-01T16:36:20.560Z,4.50
2023-02-01T16:38:48.080Z,4.20
2023-02-01T16:41:16.650Z,3.50
2023-02-01T16:43:43.952Z,3.33
2023-02-01T16:46:22.634Z,3.55
2023-02-01T16:48:56.866Z,3.47
2023-02-01T16:51:26.235Z,3.10
2023-02-01T16:53:54.881Z,3.40
2023-02-01T16:56:30.534Z,3.55
2023-02-01T16:58:58.055Z,3.13
2023-02-01T17:01:25.260Z,3.30
2023-02-01T17:03:52.226Z,4.65
2023-02-01T17:06:22.699Z,4.10
2023-02-01T17:08:53.757Z,3.40
2023-02-01T17:11:20.926Z,3.92
2023-02-01T17:13:48.367Z,3.55
2023-02-01T17:16:32.561Z,3.05
2023-02-01T17:19:04.299Z,4.43
2023-02-01T17:21:39.920Z,4.30
2023-02-01T17:24:07.145Z,4.32
2023-02-01T17:26:34.263Z,5.18
2023-02-01T17:29:01.124Z,4.53
2023-02-01T17:31:29.359Z,4.60
2023-02-01T17:33:59.318Z,3.80
2023-02-01T17:36:26.251Z,4.75
2023-02-01T17:39:04.775Z,7.18
2023-02-01T17:41:32.759Z,5.00
2023-02-01T17:43:59.770Z,4.18
2023-02-01T17:46:26.691Z,4.32
2023-02-01T17:48:54.535Z,4.43
2023-02-01T17:51:25.256Z,3.45
2023-02-01T17:53:52.151Z,4.80
2023-02-01T17:56:24.562Z,3.72
2023-02-01T17:58:51.861Z,3.78
2023-02-01T18:01:24.439Z,4.15
2023-02-01T18:03:51.661Z,4.05
2023-02-01T18:06:23.902Z,5.15
2023-02-01T18:08:50.840Z,5.13
2023-02-01T18:11:23.016Z,5.10
2023-02-01T18:13:52.040Z,6.43
2023-02-01T18:16:27.335Z,6.40
2023-02-01T18:18:55.001Z,7.45
2023-02-01T18:21:23.827Z,4.70
2023-02-01T18:23:50.774Z,5.32
2023-02-01T18:26:19.202Z,4.18
2023-02-01T18:28:46.176Z,4.70
2023-02-01T18:31:26.161Z,4.95
2023-02-01T18:33:55.074Z,4.50
2023-02-01T18:36:22.133Z,5.57
2023-02-01T18:38:49.209Z,6.10
2023-02-01T18:41:18.826Z,6.97
2023-02-01T18:43:45.848Z,4.70
2023-02-01T18:46:13.894Z,4.35
2023-02-01T18:48:42.603Z,4.60
2023-02-01T18:51:18.195Z,4.32
2023-02-01T18:53:45.044Z,3.65
2023-02-01T18:56:13.387Z,3.95
2023-02-01T18:58:41.259Z,3.75
2023-02-01T19:01:14.584Z,4.65
2023-02-01T19:03:44.829Z,4.43
2023-02-01T19:06:15.559Z,3.78
2023-02-01T19:08:45.905Z,4.20
2023-02-01T19:11:13.348Z,3.60
2023-02-01T19:13:41.192Z,3.30
2023-02-01T19:16:13.636Z,4.22
2023-02-01T19:18:40.763Z,3.88
2023-02-01T19:21:14.685Z,3.70
2023-02-01T19:23:42.834Z,4.13
2023-02-01T19:26:14.834Z,4.72
2023-02-01T19:28:42.398Z,4.13
2023-02-01T19:31:09.675Z,3.42
2023-02-01T19:33:37.213Z,3.60
2023-02-01T19:36:06.181Z,4.03
2023-02-01T19:38:34.278Z,3.80
2023-02-01T19:41:01.788Z,3.53
2023-02-01T19:43:29.207Z,3.22
2023-02-01T19:45:56.174Z,3.70
2023-02-01T19:48:26.068Z,3.88
2023-02-01T19:50:52.984Z,3.90
2023-02-01T19:53:19.899Z,2.80
2023-02-01T19:55:47.295Z,2.90
2023-02-01T19:58:14.785Z,3.40
2023-02-01T20:00:41.418Z,3.30
2023-02-01T20:03:08.617Z,2.70
2023-02-01T20:05:35.626Z,2.80
2023-02-01T20:08:04.073Z,2.80
2023-02-01T20:10:31.092Z,3.35
2023-02-01T20:12:58.110Z,3.20
2023-02-01T20:15:25.431Z,3.40
2023-02-01T20:17:52.637Z,3.70
2023-02-01T20:20:19.696Z,4.43
2023-02-01T20:22:46.518Z,3.28
2023-02-01T20:25:14.125Z,3.15
2023-02-01T20:27:41.889Z,4.45
2023-02-01T20:30:09.819Z,2.80
2023-02-01T20:32:36.827Z,2.80
2023-02-01T20:35:03.958Z,3.28
2023-02-01T20:37:30.945Z,4.60
2023-02-01T20:39:57.938Z,3.97
2023-02-01T20:42:25.344Z,3.20
2023-02-01T20:44:52.349Z,3.28
2023-02-01T20:47:19.261Z,3.75
2023-02-01T20:49:46.051Z,3.63
2023-02-01T20:52:12.959Z,3.28
2023-02-01T20:54:39.848Z,3.28
2023-02-01T20:57:06.825Z,3.65
2023-02-01T20:59:33.842Z,4.05
2023-02-01T21:02:00.810Z,3.50
2023-02-01T21:04:28.345Z,3.50
2023-02-01T21:06:59.592Z,3.63
2023-02-01T21:09:27.244Z,3.03
2023-02-01T21:11:54.727Z,3.38
2023-02-01T21:14:22.008Z,3.35
2023-02-01T21:16:49.488Z,4.10
2023-02-01T21:19:19.610Z,3.55
2023-02-01T21:21:46.603Z,3.05
2023-02-01T21:24:13.646Z,2.78
2023-02-01T21:26:40.568Z,3.10
2023-02-01T21:29:13.600Z,3.10
2023-02-01T21:31:42.009Z,5.90
2023-02-01T21:34:09.642Z,3.72
2023-02-01T21:36:36.552Z,3.33
2023-02-01T21:39:06.648Z,3.58
2023-02-01T21:41:36.287Z,4.70
2023-02-01T21:44:03.222Z,3.65
2023-02-01T21:46:30.238Z,4.60
2023-02-01T21:49:04.025Z,3.60
2023-02-01T21:51:32.680Z,4.35
2023-02-01T21:54:01.786Z,4.65
2023-02-01T21:56:29.185Z,5.47
2023-02-01T21:58:56.151Z,4.00
2023-02-01T22:01:23.877Z,4.60
2023-02-01T22:03:50.804Z,5.00
2023-02-01T22:06:29.883Z,4.80
2023-02-01T22:08:57.424Z,5.38
2023-02-01T22:11:27.940Z,5.45
2023-02-01T22:13:55.083Z,5.15
2023-02-01T22:16:22.336Z,5.22
2023-02-01T22:18:50.709Z,4.75
2023-02-01T22:21:19.037Z,5.10
2023-02-01T22:23:51.520Z,5.00
2023-02-01T22:26:18.524Z,5.13
2023-02-01T22:28:48.028Z,5.30
2023-02-01T22:31:15.026Z,6.70
2023-02-01T22:33:42.136Z,5.22
2023-02-01T22:36:09.395Z,5.10
2023-02-01T22:38:36.391Z,5.68
2023-02-01T22:41:06.439Z,4.97
2023-02-01T22:43:33.974Z,5.30
2023-02-01T22:46:02.506Z,6.00
2023-02-01T22:48:30.850Z,4.55
2023-02-01T22:51:01.834Z,5.80
2023-02-01T22:53:30.394Z,4.97
2023-02-01T22:56:07.744Z,4.63
2023-02-01T22:58:34.959Z,4.15
2023-02-01T23:01:09.986Z,4.45
2023-02-01T23:03:37.869Z,4.45
2023-02-01T23:06:06.586Z,4.30
2023-02-01T23:08:34.783Z,4.63
2023-02-01T23:11:04.567Z,4.97
2023-02-01T23:13:32.899Z,5.00
2023-02-01T23:16:04.039Z,4.55
2023-02-01T23:18:30.956Z,5.15
2023-02-01T23:21:03.096Z,4.43
2023-02-01T23:23:30.037Z,4.60
2023-02-01T23:25:57.114Z,4.85
2023-02-01T23:28:24.015Z,5.15
2023-02-01T23:30:51.047Z,4.43
2023-02-01T23:33:18.141Z,4.72
2023-02-01T23:35:55.211Z,5.82
2023-02-01T23:38:22.143Z,4.22
2023-02-01T23:40:51.428Z,4.97
2023-02-01T23:43:18.620Z,4.95
2023-02-01T23:45:45.729Z,4.75
2023-02-01T23:48:12.596Z,4.88
2023-02-01T23:50:39.639Z,4.68
2023-02-01T23:53:06.522Z,4.78
2023-02-01T23:55:33.454Z,4.43
2023-02-01T23:58:00.460Z,5.22
